Time;durP1;ratioP1;P1;durP2;ratioP2;P2;SDS_P1;SDS_P2;PMS_P1;PMS_P2;Temp;Humidity;BMP_temperature;BMP_pressure;BME280_temperature;BME280_humidity;BME280_pressure;Samples;Min_cycle;Max_cycle;Signal;HPM_P1;HPM_P2
2023/01/05 00:01:36;;;;;;;0.43;0.20;;;10.30;80.20;;;;;;5073496;28;20028;-79
2023/01/05 00:04:04;;;;;;;0.98;0.20;;;10.30;80.70;;;;;;5073416;28;20091;-79
2023/01/05 00:06:29;;;;;;;0.20;0.20;;;10.30;81.30;;;;;;5073122;28;20032;-80
2023/01/05 00:08:56;;;;;;;1.08;0.15;;;10.20;81.40;;;;;;5073342;28;20469;-80
2023/01/05 00:22:46;;;;;;;0.43;0.03;;;10.30;81.10;;;;;;5035106;28;20033;-77
2023/01/05 00:25:15;;;;;;;1.65;0.22;;;10.30;81.10;;;;;;5072916;28;20082;-76
2023/01/05 00:27:42;;;;;;;0.20;0.20;;;10.30;81.20;;;;;;5073141;28;20078;-76
2023/01/05 00:30:09;;;;;;;0.30;0.10;;;10.30;81.10;;;;;;5072876;28;20024;-76
2023/01/05 00:32:35;;;;;;;0.13;0.13;;;10.30;81.00;;;;;;5072889;28;20028;-76
2023/01/05 00:35:01;;;;;;;0.30;0.30;;;10.30;81.00;;;;;;5072913;28;20081;-77
2023/01/05 00:37:31;;;;;;;1.25;0.40;;;10.30;81.30;;;;;;5073074;28;20021;-77
2023/01/05 00:39:57;;;;;;;0.10;0.10;;;10.30;81.60;;;;;;5073138;28;20025;-79
2023/01/05 00:42:23;;;;;;;0.20;0.20;;;10.30;81.50;;;;;;5073188;28;20055;-77
2023/01/05 00:44:49;;;;;;;0.35;0.10;;;10.30;81.30;;;;;;5072953;28;20021;-78
2023/01/05 00:47:14;;;;;;;0.17;0.10;;;10.30;81.30;;;;;;5072082;28;20056;-79
2023/01/05 00:49:40;;;;;;;1.70;0.15;;;10.30;81.00;;;;;;5072883;28;20032;-78
2023/01/05 00:52:06;;;;;;;1.48;0.10;;;10.30;80.70;;;;;;5072849;28;20056;-80
2023/01/05 00:54:32;;;;;;;0.30;0.10;;;10.30;80.50;;;;;;5073008;28;20028;-78
2023/01/05 00:56:57;;;;;;;0.10;0.10;;;10.40;80.20;;;;;;5072611;28;20032;-79
2023/01/05 00:59:23;;;;;;;0.10;0.10;;;10.40;80.00;;;;;;5073006;28;20016;-77
2023/01/05 01:01:50;;;;;;;0.00;0.00;;;10.50;79.80;;;;;;5073958;28;20365;-77
2023/01/05 01:04:16;;;;;;;0.13;0.10;;;10.50;80.00;;;;;;5076445;28;20024;-79
2023/01/05 01:06:42;;;;;;;0.10;0.10;;;10.50;81.20;;;;;;5076362;28;20033;-78
2023/01/05 01:09:08;;;;;;;0.10;0.08;;;10.40;82.80;;;;;;5076568;28;20081;-80
2023/01/05 01:11:34;;;;;;;0.00;0.00;;;10.40;83.80;;;;;;5076754;28;20039;-79
2023/01/05 01:13:59;;;;;;;0.10;0.10;;;10.20;84.60;;;;;;5076418;28;20021;-78
2023/01/05 01:16:25;;;;;;;0.80;0.15;;;10.10;85.80;;;;;;5083531;28;20107;-78
2023/01/05 01:18:50;;;;;;;0.00;0.00;;;10.00;86.30;;;;;;5076225;28;20024;-78
2023/01/05 01:21:16;;;;;;;0.20;0.00;;;10.00;86.20;;;;;;5076463;28;20376;-76
2023/01/05 01:23:42;;;;;;;0.00;0.00;;;10.00;86.50;;;;;;5076398;28;20024;-76
2023/01/05 01:26:10;;;;;;;0.00;0.00;;;10.00;86.40;;;;;;5075889;28;20040;-78
2023/01/05 01:28:35;;;;;;;0.10;0.10;;;9.90;86.40;;;;;;5058688;28;20017;-78
2023/01/05 01:31:01;;;;;;;0.00;0.00;;;9.90;87.00;;;;;;5058325;28;20077;-77
2023/01/05 01:33:28;;;;;;;0.00;0.00;;;9.90;86.70;;;;;;5076322;28;20028;-78
2023/01/05 01:35:54;;;;;;;0.00;0.00;;;9.90;86.90;;;;;;5075894;28;20056;-79
2023/01/05 01:38:20;;;;;;;0.25;0.10;;;9.90;86.80;;;;;;5076175;28;20049;-79
2023/01/05 01:40:46;;;;;;;0.05;0.05;;;9.90;85.80;;;;;;5075947;28;20158;-79
2023/01/05 01:43:19;;;;;;;0.10;0.10;;;9.90;86.50;;;;;;5076093;28;20033;-80
2023/01/05 01:45:45;;;;;;;0.10;0.10;;;10.00;86.00;;;;;;5075757;28;20052;-80
2023/01/05 01:48:18;;;;;;;0.45;0.10;;;10.00;86.10;;;;;;5075821;28;20027;-79
2023/01/05 01:50:47;;;;;;;0.30;0.10;;;9.90;86.10;;;;;;5075821;28;20016;-78
2023/01/05 01:53:27;;;;;;;0.20;0.00;;;10.00;86.30;;;;;;5075859;28;20024;-78
2023/01/05 01:55:56;;;;;;;0.00;0.00;;;10.00;85.80;;;;;;5075791;28;20426;-78
2023/01/05 01:58:24;;;;;;;0.20;0.00;;;10.00;85.40;;;;;;5075767;28;20036;-78
2023/01/05 02:00:50;;;;;;;0.63;0.00;;;9.90;85.70;;;;;;5075794;28;20146;-77
2023/01/05 02:03:16;;;;;;;0.00;0.00;;;9.90;86.30;;;;;;5075669;28;20039;-77
2023/01/05 02:05:42;;;;;;;0.13;0.00;;;9.90;86.10;;;;;;5075667;28;20040;-76
2023/01/05 02:08:13;;;;;;;0.20;0.10;;;9.90;86.20;;;;;;5075673;28;20024;-76
2023/01/05 02:10:54;;;;;;;0.10;0.00;;;9.90;86.20;;;;;;5057720;28;20371;-76
2023/01/05 02:13:34;;;;;;;0.10;0.10;;;9.90;86.00;;;;;;5075269;28;20023;-77
2023/01/05 02:16:18;;;;;;;0.00;0.00;;;9.90;86.60;;;;;;5057468;28;20025;-76
2023/01/05 02:19:21;;;;;;;0.10;0.00;;;9.90;86.30;;;;;;5075427;28;20023;-76
2023/01/05 02:22:05;;;;;;;0.10;0.00;;;9.90;86.60;;;;;;5075149;28;20024;-76
2023/01/05 02:24:42;;;;;;;0.00;0.00;;;9.90;86.30;;;;;;5075147;28;20024;-77
2023/01/05 02:27:37;;;;;;;0.03;0.00;;;9.80;84.90;;;;;;5075200;28;20120;-78
2023/01/05 02:30:11;;;;;;;0.00;0.00;;;9.90;85.40;;;;;;5074997;28;20407;-77
2023/01/05 02:32:54;;;;;;;0.05;0.00;;;9.90;84.40;;;;;;5075052;28;20094;-78
2023/01/05 02:35:44;;;;;;;0.45;0.10;;;10.00;84.60;;;;;;5075082;28;20033;-78
2023/01/05 02:38:28;;;;;;;0.00;0.00;;;10.00;84.80;;;;;;5057024;28;20568;-77
2023/01/05 02:40:59;;;;;;;0.00;0.00;;;10.00;84.80;;;;;;5074826;28;20043;-78
2023/01/05 02:43:27;;;;;;;0.00;0.00;;;10.00;84.60;;;;;;5074884;28;20060;-78
2023/01/05 02:45:54;;;;;;;0.00;0.00;;;9.90;84.80;;;;;;5074934;28;20123;-78
2023/01/05 02:48:20;;;;;;;0.20;0.00;;;10.00;85.20;;;;;;5074920;28;20016;-77
2023/01/05 02:51:01;;;;;;;0.00;0.00;;;9.90;85.20;;;;;;5074843;28;20024;-76
2023/01/05 02:53:39;;;;;;;0.32;0.15;;;9.90;85.10;;;;;;5075095;28;20211;-78
2023/01/05 02:56:17;;;;;;;0.98;0.10;;;9.90;84.80;;;;;;5075077;28;20032;-77
2023/01/05 02:58:53;;;;;;;0.35;0.00;;;10.00;84.40;;;;;;5074430;28;20020;-77
2023/01/05 03:01:27;;;;;;;0.00;0.00;;;10.00;84.40;;;;;;5074582;28;20448;-77
2023/01/05 03:04:15;;;;;;;0.00;0.00;;;10.00;84.30;;;;;;5074491;28;20024;-78
2023/01/05 03:06:55;;;;;;;0.10;0.10;;;10.10;84.30;;;;;;5074447;28;20063;-76
2023/01/05 03:09:25;;;;;;;0.47;0.00;;;10.00;84.30;;;;;;5074164;28;20024;-76
2023/01/05 03:15:08;;;;;;;0.00;0.00;;;10.10;84.20;;;;;;5074310;28;20116;-76
2023/01/05 03:17:45;;;;;;;0.82;0.10;;;10.00;83.80;;;;;;5073801;28;20385;-76
2023/01/05 03:20:13;;;;;;;0.00;0.00;;;10.10;84.00;;;;;;5074312;28;20461;-76
2023/01/05 03:37:17;;;;;;;0.00;0.00;;;10.10;83.70;;;;;;5073780;28;20109;-76
2023/01/05 03:39:45;;;;;;;0.90;0.00;;;10.10;83.60;;;;;;5073827;28;20599;-77
2023/01/05 03:42:12;;;;;;;0.00;0.00;;;10.10;83.50;;;;;;5073746;28;20020;-77
2023/01/05 03:44:40;;;;;;;0.00;0.00;;;10.00;83.50;;;;;;5073497;28;20040;-79
2023/01/05 03:47:06;;;;;;;0.00;0.00;;;10.10;83.60;;;;;;5073568;28;20036;-79
2023/01/05 03:49:31;;;;;;;0.00;0.00;;;10.10;83.30;;;;;;5073752;28;20021;-79
2023/01/05 03:51:57;;;;;;;0.35;0.05;;;10.10;83.40;;;;;;5073564;28;20110;-79
2023/01/05 03:54:22;;;;;;;0.00;0.00;;;10.10;83.20;;;;;;5085658;28;20028;-78
2023/01/05 03:56:48;;;;;;;0.22;0.08;;;10.10;83.20;;;;;;5081551;28;20112;-78
2023/01/05 03:59:14;;;;;;;0.10;0.00;;;10.20;82.90;;;;;;5073904;28;20100;-77
2023/01/05 04:01:39;;;;;;;0.00;0.00;;;10.20;83.10;;;;;;5073286;28;20056;-76
2023/01/05 04:04:05;;;;;;;0.65;0.00;;;10.20;82.80;;;;;;5073529;28;20036;-77
2023/01/05 04:06:31;;;;;;;0.43;0.00;;;10.30;82.30;;;;;;5073449;28;20040;-77
2023/01/05 04:08:56;;;;;;;0.00;0.00;;;10.30;82.50;;;;;;5073404;28;20111;-77
2023/01/05 04:11:23;;;;;;;0.00;0.00;;;10.30;82.50;;;;;;5073259;28;20025;-78
2023/01/05 04:13:49;;;;;;;0.10;0.00;;;10.20;82.90;;;;;;5073329;28;20028;-77
2023/01/05 04:16:14;;;;;;;0.00;0.00;;;10.30;83.00;;;;;;5073230;28;20082;-79
2023/01/05 04:18:40;;;;;;;0.00;0.00;;;10.20;83.00;;;;;;5073104;28;20086;-75
2023/01/05 04:21:06;;;;;;;0.00;0.00;;;10.20;83.20;;;;;;5073235;28;20021;-76
2023/01/05 04:23:32;;;;;;;0.00;0.00;;;10.20;83.10;;;;;;5073136;28;20023;-77
2023/01/05 04:25:58;;;;;;;0.00;0.00;;;10.30;82.80;;;;;;5073023;28;20040;-80
2023/01/05 04:28:24;;;;;;;0.15;0.08;;;10.30;82.70;;;;;;5073014;28;20051;-79
2023/01/05 04:30:52;;;;;;;0.00;0.00;;;10.20;82.60;;;;;;5073137;28;20536;-80
2023/01/05 04:33:18;;;;;;;0.00;0.00;;;10.20;82.60;;;;;;5072949;28;20094;-78
2023/01/05 04:35:44;;;;;;;0.00;0.00;;;10.20;82.70;;;;;;5073021;28;20358;-78
2023/01/05 04:38:10;;;;;;;0.10;0.00;;;10.20;82.40;;;;;;5076320;28;20077;-78
2023/01/05 04:40:36;;;;;;;0.00;0.00;;;10.30;82.10;;;;;;5077198;28;20033;-77
2023/01/05 04:43:01;;;;;;;0.32;0.00;;;10.30;82.40;;;;;;5077001;28;20384;-79
2023/01/05 04:45:27;;;;;;;0.00;0.00;;;10.30;82.40;;;;;;5076898;28;20028;-75
2023/01/05 04:47:52;;;;;;;0.10;0.10;;;10.30;82.50;;;;;;5058606;28;20078;-79
2023/01/05 04:50:18;;;;;;;0.10;0.00;;;10.30;82.30;;;;;;5076804;28;20028;-79
2023/01/05 04:52:44;;;;;;;0.52;0.00;;;10.30;82.00;;;;;;5076869;28;20049;-77
2023/01/05 04:55:10;;;;;;;0.00;0.00;;;10.30;81.80;;;;;;5076582;28;20051;-75
2023/01/05 04:57:36;;;;;;;0.10;0.00;;;10.40;82.10;;;;;;5076477;28;20024;-76
2023/01/05 05:00:03;;;;;;;0.00;0.00;;;10.30;82.60;;;;;;5076624;28;20548;-76
2023/01/05 05:02:28;;;;;;;0.30;0.00;;;10.30;83.10;;;;;;5076565;28;20021;-74
2023/01/05 05:04:54;;;;;;;0.50;0.40;;;10.30;83.40;;;;;;5076304;28;20032;-75
2023/01/05 05:07:19;;;;;;;0.20;0.15;;;10.20;83.50;;;;;;5076576;28;20029;-75
2023/01/05 05:09:45;;;;;;;0.00;0.00;;;10.20;84.00;;;;;;5076660;28;20020;-77
2023/01/05 05:12:12;;;;;;;0.20;0.00;;;10.30;83.00;;;;;;5076534;28;20024;-77
2023/01/05 05:14:38;;;;;;;0.00;0.00;;;10.20;82.80;;;;;;5076473;28;20069;-78
2023/01/05 05:17:04;;;;;;;0.00;0.00;;;10.20;82.80;;;;;;5076554;28;20031;-80
2023/01/05 05:19:30;;;;;;;0.00;0.00;;;10.30;82.50;;;;;;5076687;28;20032;-79
2023/01/05 05:21:55;;;;;;;3.13;0.10;;;10.30;82.30;;;;;;5076082;28;20021;-80
2023/01/05 05:24:21;;;;;;;0.57;0.22;;;10.30;82.90;;;;;;5076294;28;20115;-78
2023/01/05 05:26:47;;;;;;;2.70;1.75;;;10.30;82.90;;;;;;5076198;28;20025;-76
2023/01/05 05:29:12;;;;;;;0.00;0.00;;;10.30;82.80;;;;;;5076101;28;20027;-81
2023/01/05 05:31:38;;;;;;;0.00;0.00;;;10.30;82.60;;;;;;5075962;28;20032;-78
2023/01/05 05:34:03;;;;;;;0.00;0.00;;;10.30;83.00;;;;;;5074886;28;20024;-77
2023/01/05 05:36:29;;;;;;;0.32;0.20;;;10.20;83.90;;;;;;5076262;28;20029;-77
2023/01/05 05:38:55;;;;;;;0.00;0.00;;;10.20;84.10;;;;;;5077343;28;20017;-78
2023/01/05 05:41:21;;;;;;;0.10;0.00;;;10.10;84.20;;;;;;5076478;28;20043;-77
2023/01/05 05:43:46;;;;;;;0.35;0.35;;;10.10;84.40;;;;;;5083137;28;20097;-78
2023/01/05 05:46:12;;;;;;;0.70;0.60;;;10.10;84.70;;;;;;5074731;28;20485;-76
2023/01/05 05:48:37;;;;;;;0.00;0.00;;;10.10;85.70;;;;;;5075348;28;20099;-77
2023/01/05 05:51:03;;;;;;;0.00;0.00;;;10.10;85.00;;;;;;5075653;28;20048;-77
2023/01/05 05:53:29;;;;;;;0.10;0.10;;;10.10;85.10;;;;;;5075828;28;20504;-78
2023/01/05 05:55:54;;;;;;;0.03;0.00;;;10.10;84.20;;;;;;5075777;28;20142;-80
2023/01/05 05:58:20;;;;;;;0.30;0.00;;;10.10;84.00;;;;;;5075742;28;20146;-79
2023/01/05 06:00:46;;;;;;;2.70;0.10;;;10.10;83.90;;;;;;5075599;28;20017;-80
2023/01/05 06:03:11;;;;;;;0.13;0.00;;;10.10;84.60;;;;;;5075775;28;20402;-78
2023/01/05 06:05:37;;;;;;;0.85;0.10;;;10.20;83.70;;;;;;5075474;28;20358;-77
2023/01/05 06:08:03;;;;;;;1.00;0.70;;;10.10;83.70;;;;;;5075250;28;20477;-81
2023/01/05 06:10:29;;;;;;;0.40;0.30;;;10.20;83.30;;;;;;5075644;28;20082;-78
2023/01/05 06:12:54;;;;;;;0.00;0.00;;;10.20;83.10;;;;;;5075271;28;20126;-81
2023/01/05 06:15:21;;;;;;;0.00;0.00;;;10.30;82.80;;;;;;5075322;28;20021;-81
2023/01/05 06:17:47;;;;;;;0.00;0.00;;;10.30;82.30;;;;;;5075260;28;20017;-78
2023/01/05 06:20:13;;;;;;;0.10;0.00;;;10.30;82.00;;;;;;5075339;28;20025;-79
2023/01/05 06:22:38;;;;;;;0.05;0.05;;;10.30;81.80;;;;;;5075179;28;20021;-78
2023/01/05 06:25:05;;;;;;;0.20;0.20;;;10.40;81.70;;;;;;5065169;28;20081;-77
2023/01/05 06:27:30;;;;;;;0.00;0.00;;;10.30;81.90;;;;;;4992487;28;20023;-78
2023/01/05 06:29:56;;;;;;;0.85;0.10;;;10.30;82.00;;;;;;4992382;28;20559;-77
2023/01/05 06:32:22;;;;;;;0.00;0.00;;;10.30;81.90;;;;;;4992675;28;20022;-78
2023/01/05 06:34:47;;;;;;;0.68;0.30;;;10.30;82.00;;;;;;4992412;28;20026;-77
2023/01/05 06:37:13;;;;;;;0.10;0.10;;;10.30;82.00;;;;;;4992450;28;20143;-78
2023/01/05 06:39:38;;;;;;;0.10;0.05;;;10.30;82.30;;;;;;4992518;28;20038;-78
2023/01/05 06:42:04;;;;;;;0.38;0.25;;;10.20;82.20;;;;;;4992433;28;20105;-78
2023/01/05 06:44:29;;;;;;;0.35;0.10;;;10.30;82.50;;;;;;4992180;28;20062;-78
2023/01/05 06:46:55;;;;;;;0.00;0.00;;;10.20;82.70;;;;;;4992325;28;20521;-79
2023/01/05 06:49:20;;;;;;;0.40;0.20;;;10.20;82.70;;;;;;4992340;28;20425;-78
2023/01/05 06:51:46;;;;;;;1.10;0.40;;;10.20;83.00;;;;;;4992083;28;20514;-77
2023/01/05 06:54:12;;;;;;;0.20;0.10;;;10.20;83.10;;;;;;4992150;28;20494;-78
2023/01/05 06:56:37;;;;;;;0.52;0.20;;;10.10;82.90;;;;;;4974935;28;20030;-77
2023/01/05 06:59:03;;;;;;;1.10;0.10;;;10.10;82.60;;;;;;4991390;28;20054;-77
2023/01/05 07:01:29;;;;;;;1.58;0.35;;;10.20;82.50;;;;;;4991883;28;20542;-79
2023/01/05 07:03:54;;;;;;;0.20;0.20;;;10.30;82.00;;;;;;4991824;28;20045;-84
2023/01/05 07:06:20;;;;;;;1.30;0.05;;;10.40;81.50;;;;;;4992099;28;20037;-80
2023/01/05 07:08:45;;;;;;;0.20;0.17;;;10.40;81.40;;;;;;4992044;28;20026;-81
2023/01/05 07:11:12;;;;;;;0.30;0.30;;;10.40;81.20;;;;;;4992016;28;20116;-80
2023/01/05 07:13:38;;;;;;;3.70;0.20;;;10.40;81.10;;;;;;4992056;28;20018;-79
2023/01/05 07:16:04;;;;;;;0.65;0.32;;;10.50;80.70;;;;;;4992142;28;20101;-80
2023/01/05 07:18:29;;;;;;;0.75;0.35;;;10.60;80.40;;;;;;4993791;28;20026;-80
2023/01/05 07:20:55;;;;;;;1.30;0.10;;;10.70;79.60;;;;;;4994845;28;20089;-80
2023/01/05 07:23:20;;;;;;;0.10;0.10;;;10.70;78.30;;;;;;4996293;28;20018;-78
2023/01/05 07:25:46;;;;;;;0.55;0.10;;;10.80;78.00;;;;;;5090805;28;20025;-79
2023/01/05 07:28:11;;;;;;;0.15;0.10;;;10.90;77.00;;;;;;5095923;28;20068;-78
2023/01/05 07:30:37;;;;;;;0.20;0.20;;;10.90;77.20;;;;;;5085194;28;20583;-78
2023/01/05 07:33:02;;;;;;;4.70;0.40;;;10.90;77.10;;;;;;5073173;28;20021;-79
2023/01/05 07:35:28;;;;;;;2.00;0.50;;;10.90;77.20;;;;;;5073684;28;20020;-78
2023/01/05 07:37:57;;;;;;;0.50;0.20;;;10.90;77.00;;;;;;5073707;28;20122;-79
2023/01/05 07:40:22;;;;;;;1.52;0.40;;;10.90;76.40;;;;;;5073481;28;20099;-77
2023/01/05 07:42:52;;;;;;;1.27;0.32;;;10.90;76.50;;;;;;5072211;28;20071;-77
2023/01/05 07:45:18;;;;;;;0.40;0.20;;;10.70;76.40;;;;;;5073276;28;20025;-76
2023/01/05 07:47:45;;;;;;;1.45;0.20;;;10.60;76.60;;;;;;5073470;28;20054;-76
2023/01/05 07:50:11;;;;;;;0.90;0.30;;;10.60;76.60;;;;;;5073155;28;20103;-76
2023/01/05 07:52:38;;;;;;;1.75;0.60;;;10.60;76.90;;;;;;5072952;28;20044;-77
2023/01/05 07:55:04;;;;;;;1.35;0.30;;;10.50;77.40;;;;;;5073204;28;20055;-76
2023/01/05 07:57:29;;;;;;;1.55;0.50;;;10.40;77.60;;;;;;5071771;28;20527;-77
2023/01/05 07:59:55;;;;;;;0.93;0.20;;;10.40;78.00;;;;;;5072750;28;20020;-76
2023/01/05 08:02:20;;;;;;;2.10;1.27;;;10.40;78.50;;;;;;5072966;28;20047;-77
2023/01/05 08:04:46;;;;;;;0.55;0.40;;;10.30;78.70;;;;;;5078293;28;20059;-77
2023/01/05 08:07:13;;;;;;;0.90;0.30;;;10.30;79.10;;;;;;5081367;28;20047;-77
2023/01/05 08:12:23;;;;;;;0.30;0.20;;;10.30;79.40;;;;;;5085108;28;20058;-76
2023/01/05 08:14:49;;;;;;;1.10;0.40;;;10.40;79.40;;;;;;5093149;28;20028;-77
2023/01/05 08:17:15;;;;;;;0.47;0.30;;;10.30;79.80;;;;;;5091797;28;20032;-76
2023/01/05 08:19:40;;;;;;;2.10;0.50;;;10.30;80.80;;;;;;5091908;28;20028;-78
2023/01/05 08:22:06;;;;;;;0.20;0.20;;;10.20;81.70;;;;;;5091808;28;20035;-77
2023/01/05 08:24:31;;;;;;;0.50;0.32;;;10.20;82.80;;;;;;5091424;28;20020;-77
2023/01/05 08:26:57;;;;;;;0.73;0.40;;;10.00;84.80;;;;;;5092237;28;20036;-77
2023/01/05 08:29:22;;;;;;;2.90;0.50;;;10.00;85.80;;;;;;5091971;28;20101;-76
2023/01/05 08:31:48;;;;;;;2.00;0.80;;;9.90;87.00;;;;;;5089531;28;20029;-77
2023/01/05 08:34:14;;;;;;;0.77;0.50;;;9.90;87.70;;;;;;5088125;28;20040;-76
2023/01/05 08:36:39;;;;;;;1.88;0.57;;;9.80;88.30;;;;;;5091710;28;20032;-76
2023/01/05 08:39:08;;;;;;;0.40;0.40;;;9.80;88.40;;;;;;5077733;28;20099;-76
2023/01/05 08:41:36;;;;;;;1.23;0.52;;;9.90;88.80;;;;;;5073080;28;20100;-76
2023/01/05 08:44:07;;;;;;;1.80;0.50;;;9.90;88.80;;;;;;5055108;28;20090;-77
2023/01/05 08:46:34;;;;;;;2.30;0.55;;;9.90;89.00;;;;;;5073049;28;20041;-75
2023/01/05 08:49:01;;;;;;;0.85;0.70;;;9.90;89.50;;;;;;5073274;28;20033;-75
2023/01/05 08:51:28;;;;;;;0.77;0.50;;;9.90;89.50;;;;;;5072737;28;20045;-76
2023/01/05 08:53:54;;;;;;;5.80;2.55;;;9.90;89.40;;;;;;5076437;28;20088;-75
2023/01/05 08:56:21;;;;;;;3.60;2.15;;;9.90;89.60;;;;;;5081781;28;20033;-75
2023/01/05 08:58:46;;;;;;;3.30;1.80;;;9.90;89.70;;;;;;5076430;28;20020;-75
2023/01/05 09:01:14;;;;;;;1.67;1.30;;;9.90;89.60;;;;;;5076900;28;20167;-76
2023/01/05 09:03:40;;;;;;;1.38;1.10;;;9.80;89.60;;;;;;5088731;28;20036;-75
2023/01/05 09:06:08;;;;;;;1.55;1.20;;;9.90;89.50;;;;;;5088191;28;20032;-76
2023/01/05 09:08:34;;;;;;;1.52;1.08;;;10.00;89.50;;;;;;5073670;28;20384;-75
2023/01/05 09:11:14;;;;;;;0.38;0.38;;;10.10;89.30;;;;;;5072435;28;20028;-76
2023/01/05 09:13:43;;;;;;;1.27;0.40;;;10.10;86.40;;;;;;5072408;28;20035;-76
2023/01/05 09:16:12;;;;;;;1.42;0.50;;;10.30;86.90;;;;;;5072436;28;20028;-76
2023/01/05 09:18:39;;;;;;;1.38;0.60;;;10.40;86.30;;;;;;5054754;28;20025;-76
2023/01/05 09:21:05;;;;;;;1.65;1.13;;;10.40;85.10;;;;;;5054320;28;20055;-75
2023/01/05 09:23:31;;;;;;;0.93;0.60;;;10.40;85.00;;;;;;5056657;28;20032;-76
2023/01/05 09:25:57;;;;;;;0.75;0.60;;;10.40;84.50;;;;;;5058130;28;20064;-76
2023/01/05 09:28:22;;;;;;;2.25;0.40;;;10.30;85.70;;;;;;5057805;28;20466;-75
2023/01/05 09:30:48;;;;;;;0.30;0.30;;;10.20;85.50;;;;;;5058269;28;20024;-76
2023/01/05 09:33:14;;;;;;;1.17;0.60;;;10.20;86.50;;;;;;5058272;28;20028;-76
2023/01/05 09:35:39;;;;;;;0.57;0.43;;;10.20;86.50;;;;;;5057307;28;20072;-77
2023/01/05 09:38:05;;;;;;;0.68;0.35;;;10.10;87.00;;;;;;5041137;28;20458;-77
2023/01/05 09:40:38;;;;;;;2.20;0.73;;;10.00;87.70;;;;;;5057489;28;20431;-77
2023/01/05 09:43:05;;;;;;;1.98;0.80;;;10.00;87.30;;;;;;5040821;28;20033;-78
2023/01/05 09:45:32;;;;;;;1.00;0.90;;;10.00;87.60;;;;;;5073701;28;20036;-77
2023/01/05 09:48:00;;;;;;;0.93;0.52;;;10.10;87.80;;;;;;5074473;28;20021;-77
2023/01/05 09:50:31;;;;;;;2.97;0.80;;;10.10;87.60;;;;;;5057584;28;20039;-77
2023/01/05 09:52:59;;;;;;;1.17;0.88;;;10.20;87.10;;;;;;5075085;28;20121;-76
2023/01/05 09:55:30;;;;;;;1.77;1.10;;;10.20;87.00;;;;;;5056805;28;20112;-77
2023/01/05 09:57:59;;;;;;;2.20;0.60;;;10.30;86.50;;;;;;5057263;28;20025;-77
2023/01/05 10:00:27;;;;;;;1.58;0.40;;;10.40;86.00;;;;;;5057477;28;20021;-78
2023/01/05 10:03:04;;;;;;;2.53;0.65;;;10.50;84.30;;;;;;5057760;28;20032;-77
2023/01/05 10:05:32;;;;;;;3.53;1.63;;;10.50;83.70;;;;;;5057078;28;20039;-76
2023/01/05 10:08:14;;;;;;;1.52;0.52;;;10.60;83.70;;;;;;5057088;28;20064;-77
2023/01/05 10:13:46;;;;;;;2.58;0.75;;;10.70;81.70;;;;;;5075562;28;20035;-76
2023/01/05 10:16:16;;;;;;;4.78;0.93;;;10.80;80.00;;;;;;5057120;28;20024;-78
2023/01/05 10:18:42;;;;;;;3.03;0.68;;;10.80;80.60;;;;;;5057305;28;20020;-77
2023/01/05 10:21:19;;;;;;;3.22;0.82;;;10.70;78.10;;;;;;5056974;28;20020;-77
2023/01/05 10:24:20;;;;;;;4.53;0.98;;;10.70;76.30;;;;;;5057235;28;20029;-77
2023/01/05 10:27:04;;;;;;;4.07;0.93;;;11.00;75.10;;;;;;5056933;28;20039;-76
2023/01/05 10:29:56;;;;;;;3.70;0.93;;;11.20;71.90;;;;;;5041204;28;20028;-77
2023/01/05 10:32:27;;;;;;;6.85;2.35;;;11.40;71.80;;;;;;5057300;28;20038;-78
2023/01/05 10:35:30;;;;;;;3.28;0.77;;;11.60;69.80;;;;;;5055525;28;20017;-77
2023/01/05 10:38:14;;;;;;;2.67;0.93;;;11.50;70.00;;;;;;5044381;28;20029;-77
2023/01/05 10:41:00;;;;;;;5.25;1.27;;;11.40;71.30;;;;;;5057116;28;20020;-77
2023/01/05 10:44:06;;;;;;;2.58;0.90;;;11.30;72.50;;;;;;5056646;28;20048;-77
2023/01/05 10:46:39;;;;;;;2.03;0.63;;;11.50;73.30;;;;;;5017044;28;20040;-77
2023/01/05 10:49:06;;;;;;;7.32;1.30;;;11.30;72.80;;;;;;5039753;28;20267;-77
2023/01/05 10:51:34;;;;;;;4.85;1.38;;;11.20;74.10;;;;;;5053151;28;20049;-77
2023/01/05 10:54:01;;;;;;;6.13;1.27;;;11.20;74.30;;;;;;5053449;28;20040;-77
2023/01/05 10:56:28;;;;;;;4.38;1.00;;;11.20;73.50;;;;;;5054717;28;20025;-78
2023/01/05 10:59:14;;;;;;;8.18;1.10;;;11.20;72.70;;;;;;5052948;28;20025;-77
2023/01/05 11:01:44;;;;;;;5.03;1.38;;;11.10;72.40;;;;;;5053842;28;20021;-77
2023/01/05 11:04:19;;;;;;;6.43;1.20;;;11.20;72.40;;;;;;5055103;28;20064;-76
2023/01/05 11:06:45;;;;;;;5.05;1.33;;;11.20;72.20;;;;;;5053847;28;20060;-77
2023/01/05 11:09:20;;;;;;;4.18;1.35;;;11.10;71.00;;;;;;5056049;28;20082;-77
2023/01/05 11:11:54;;;;;;;4.18;1.27;;;11.00;71.50;;;;;;5077581;28;20012;-77
2023/01/05 11:14:21;;;;;;;6.85;1.23;;;11.10;71.00;;;;;;5075833;28;20044;-78
2023/01/05 11:16:52;;;;;;;5.72;1.92;;;11.10;71.10;;;;;;5076995;28;20052;-77
2023/01/05 11:19:21;;;;;;;5.45;1.42;;;11.10;71.50;;;;;;5075912;28;20010;-77
2023/01/05 11:21:47;;;;;;;7.30;1.48;;;11.20;70.80;;;;;;5067618;28;20036;-77
2023/01/05 11:24:22;;;;;;;6.07;0.98;;;11.40;71.20;;;;;;5054683;28;20029;-77
2023/01/05 11:26:53;;;;;;;6.10;1.43;;;11.50;69.70;;;;;;5053719;28;20086;-77
2023/01/05 11:29:19;;;;;;;6.10;1.30;;;11.30;68.90;;;;;;5037413;28;20771;-77
2023/01/05 11:32:03;;;;;;;5.47;1.70;;;11.30;68.90;;;;;;5053760;28;20068;-76
2023/01/05 11:34:48;;;;;;;5.25;1.33;;;11.30;68.70;;;;;;5053968;28;20029;-77
2023/01/05 11:37:30;;;;;;;4.43;1.13;;;11.30;68.30;;;;;;5053697;28;20024;-77
2023/01/05 11:39:58;;;;;;;7.85;1.15;;;11.30;67.80;;;;;;5052382;28;20021;-77
2023/01/05 11:42:24;;;;;;;5.72;1.17;;;11.20;68.00;;;;;;5052543;28;20028;-77
2023/01/05 11:45:06;;;;;;;9.20;1.40;;;11.20;68.10;;;;;;5052250;28;20029;-78
2023/01/05 11:48:09;;;;;;;10.55;1.90;;;11.20;68.90;;;;;;5052200;28;20037;-77
2023/01/05 11:50:55;;;;;;;5.88;1.45;;;11.20;68.30;;;;;;5052395;28;20048;-76
2023/01/05 11:53:27;;;;;;;9.25;1.30;;;11.20;68.40;;;;;;5052068;28;20050;-77
2023/01/05 11:56:03;;;;;;;7.00;1.13;;;11.10;70.00;;;;;;5052595;28;20037;-76
2023/01/05 11:58:40;;;;;;;6.97;1.40;;;11.00;70.80;;;;;;5052018;28;20028;-77
2023/01/05 12:01:15;;;;;;;6.43;1.30;;;11.10;70.80;;;;;;5053340;28;20131;-77
2023/01/05 12:04:02;;;;;;;4.50;1.33;;;11.10;71.10;;;;;;5053419;28;20025;-77
2023/01/05 12:06:46;;;;;;;6.57;1.67;;;11.20;70.50;;;;;;5053007;28;20029;-78
2023/01/05 12:09:32;;;;;;;5.28;0.98;;;11.30;69.70;;;;;;5068464;28;20401;-77
2023/01/05 12:12:16;;;;;;;;;;;11.50;69.50;;;;;;5052323;28;20032;-78
2023/01/05 12:15:12;;;;;;;5.45;1.25;;;11.90;69.80;;;;;;5052759;28;19908;-77
2023/01/05 12:18:04;;;;;;;10.90;1.58;;;12.50;64.60;;;;;;5051866;28;20017;-78
2023/01/05 12:20:29;;;;;;;6.88;1.50;;;12.60;62.80;;;;;;5053958;28;20024;-81
2023/01/05 12:22:58;;;;;;;4.07;1.00;;;12.40;63.30;;;;;;5054967;28;20025;-78
2023/01/05 12:25:35;;;;;;;4.40;1.08;;;12.40;63.30;;;;;;5058523;28;20044;-78
2023/01/05 12:28:19;;;;;;;10.18;1.00;;;12.20;63.00;;;;;;5059687;28;20033;-78
2023/01/05 12:31:07;;;;;;;5.45;1.50;;;11.70;65.50;;;;;;5038189;28;20023;-79
2023/01/05 12:33:51;;;;;;;4.97;1.17;;;11.70;65.40;;;;;;4996985;28;20498;-78
2023/01/05 12:36:55;;;;;;;5.82;1.30;;;11.70;65.60;;;;;;4997955;28;20013;-81
2023/01/05 12:39:44;;;;;;;4.90;1.10;;;11.80;64.90;;;;;;5051997;28;20063;-80
2023/01/05 12:42:50;;;;;;;8.25;1.38;;;11.70;65.70;;;;;;5051883;28;20029;-79
2023/01/05 12:45:51;;;;;;;5.80;1.10;;;11.80;65.40;;;;;;5009011;28;20081;-78
2023/01/05 12:48:41;;;;;;;5.85;1.15;;;11.60;66.80;;;;;;5001636;28;20049;-79
2023/01/05 12:51:34;;;;;;;5.35;2.33;;;11.70;67.10;;;;;;4947406;28;20527;-79
2023/01/05 12:54:21;;;;;;;4.20;1.20;;;11.80;67.10;;;;;;4947409;28;20503;-80
2023/01/05 12:56:52;;;;;;;6.07;1.23;;;11.80;67.80;;;;;;4947518;28;20028;-80
2023/01/05 12:59:32;;;;;;;2.70;0.93;;;11.90;67.20;;;;;;4950681;28;20082;-80
2023/01/05 13:02:19;;;;;;;2.38;1.00;;;12.00;67.00;;;;;;4950642;28;20122;-80
2023/01/05 13:05:03;;;;;;;4.00;1.20;;;11.90;67.30;;;;;;4934633;29;20032;-77
2023/01/05 13:07:31;;;;;;;3.75;0.80;;;11.90;66.80;;;;;;4950623;28;20098;-77
2023/01/05 13:10:02;;;;;;;3.85;1.13;;;11.80;67.30;;;;;;4935742;28;20500;-78
2023/01/05 13:12:28;;;;;;;4.13;0.90;;;11.80;68.00;;;;;;4950517;28;20039;-77
2023/01/05 13:15:10;;;;;;;12.18;2.33;;;11.90;67.70;;;;;;4949931;28;20074;-78
2023/01/05 13:17:41;;;;;;;3.90;1.63;;;11.80;66.80;;;;;;4935562;29;20032;-78
2023/01/05 13:20:19;;;;;;;7.80;1.02;;;11.80;66.60;;;;;;4950122;28;20110;-79
2023/01/05 13:22:46;;;;;;;4.28;0.98;;;11.70;66.70;;;;;;4934584;29;20051;-79
2023/01/05 13:25:20;;;;;;;4.45;0.98;;;11.60;67.20;;;;;;4950359;28;20086;-78
2023/01/05 13:27:47;;;;;;;3.05;1.15;;;11.50;68.10;;;;;;4950571;28;20031;-79
2023/01/05 13:30:42;;;;;;;4.78;0.95;;;11.60;68.20;;;;;;4934328;29;20389;-78
2023/01/05 13:33:46;;;;;;;10.55;1.40;;;11.60;68.50;;;;;;4950280;29;20169;-78
2023/01/05 13:36:42;;;;;;;4.53;1.60;;;11.60;67.70;;;;;;4933914;29;20132;-78
2023/01/05 13:39:22;;;;;;;4.35;0.90;;;11.50;68.30;;;;;;4935328;29;20489;-78
2023/01/05 13:41:50;;;;;;;6.93;2.40;;;11.50;68.30;;;;;;4934078;29;20477;-78